Time;durP1;ratioP1;P1;durP2;ratioP2;P2;SDS_P1;SDS_P2;PMS_P1;PMS_P2;Temp;Humidity;BMP_temperature;BMP_pressure;BME280_temperature;BME280_humidity;BME280_pressure;Samples;Min_cycle;Max_cycle;Signal;HPM_P1;HPM_P2
2020/12/25 00:00:10;;;;;;;11.32;6.22;;;4.50;99.90;;;;;;5001612;28;20048;-78
2020/12/25 00:02:35;;;;;;;13.38;6.38;;;4.70;99.90;;;;;;5003830;28;20046;-78
2020/12/25 00:05:01;;;;;;;16.00;7.05;;;4.50;99.90;;;;;;5002049;28;20074;-78
2020/12/25 00:07:27;;;;;;;12.82;6.82;;;4.30;99.90;;;;;;4997415;28;20042;-79
2020/12/25 00:09:53;;;;;;;15.70;6.90;;;4.40;99.90;;;;;;5000142;28;20052;-78
2020/12/25 00:12:18;;;;;;;11.20;5.80;;;4.40;99.90;;;;;;4995358;28;20046;-78
2020/12/25 00:14:44;;;;;;;12.32;6.82;;;4.40;99.90;;;;;;5006360;28;21577;-79
2020/12/25 00:17:09;;;;;;;13.13;6.07;;;4.30;99.90;;;;;;4983140;28;20104;-78
2020/12/25 00:19:35;;;;;;;13.73;7.30;;;4.30;99.90;;;;;;5001961;28;20124;-78
2020/12/25 00:22:01;;;;;;;10.52;6.05;;;4.30;99.90;;;;;;5001023;28;20042;-78
2020/12/25 00:24:26;;;;;;;14.27;6.93;;;4.20;99.90;;;;;;5017408;28;20403;-78
2020/12/25 00:26:52;;;;;;;10.80;6.97;;;4.30;99.90;;;;;;5004100;28;20412;-79
2020/12/25 00:29:18;;;;;;;14.68;6.50;;;4.20;99.90;;;;;;5013322;28;20061;-78
2020/12/25 00:31:45;;;;;;;13.05;6.47;;;4.20;99.90;;;;;;5002277;28;20050;-78
2020/12/25 00:34:11;;;;;;;11.90;6.57;;;4.20;99.90;;;;;;5005997;28;20388;-78
2020/12/25 00:36:42;;;;;;;11.80;6.30;;;4.30;99.90;;;;;;5020406;28;20057;-79
2020/12/25 00:39:09;;;;;;;;;;;4.20;99.90;;;;;;5016832;28;20042;-79
2020/12/25 00:41:38;;;;;;;14.82;6.15;;;4.30;99.90;;;;;;5008017;28;19910;-80
2020/12/25 00:44:04;;;;;;;11.25;6.25;;;5.80;99.90;;;;;;5006313;28;20154;-78
2020/12/25 00:46:30;;;;;;;11.55;6.80;;;4.20;99.90;;;;;;5013435;28;20100;-80
2020/12/25 00:48:56;;;;;;;9.90;6.28;;;4.30;99.90;;;;;;4976697;28;20339;-78
2020/12/25 00:51:22;;;;;;;11.43;6.38;;;4.30;99.90;;;;;;4991546;28;20061;-81
2020/12/25 00:53:49;;;;;;;11.43;5.53;;;4.40;99.90;;;;;;5013283;28;20037;-79
2020/12/25 00:56:15;;;;;;;10.55;6.50;;;4.40;99.90;;;;;;5000863;28;20070;-79
2020/12/25 00:58:41;;;;;;;13.55;7.05;;;4.30;99.90;;;;;;5001705;28;20041;-79
2020/12/25 01:01:08;;;;;;;12.43;6.50;;;4.30;99.90;;;;;;5003911;28;20140;-79
2020/12/25 01:03:35;;;;;;;14.18;6.22;;;4.30;99.90;;;;;;5013058;28;20034;-78
2020/12/25 01:06:01;;;;;;;13.07;6.05;;;4.40;99.90;;;;;;5000788;28;20053;-79
2020/12/25 01:08:28;;;;;;;12.82;6.18;;;5.90;99.90;;;;;;5004251;28;20129;-79
2020/12/25 01:10:53;;;;;;;10.70;5.78;;;4.30;99.90;;;;;;5001372;28;20114;-78
2020/12/25 01:13:19;;;;;;;13.07;5.30;;;4.40;99.90;;;;;;4998777;28;20030;-78
2020/12/25 01:15:45;;;;;;;10.18;5.53;;;4.30;99.90;;;;;;5002234;28;20053;-78
2020/12/25 01:18:11;;;;;;;11.68;5.93;;;4.30;99.90;;;;;;4999263;28;20044;-79
2020/12/25 01:20:37;;;;;;;13.27;5.70;;;4.30;99.90;;;;;;4997219;28;20094;-78
2020/12/25 01:23:03;;;;;;;9.48;5.28;;;4.30;99.90;;;;;;5002514;28;20030;-79
2020/12/25 01:25:29;;;;;;;10.63;4.88;;;4.10;99.90;;;;;;5002114;28;20030;-78
2020/12/25 01:27:55;;;;;;;12.38;5.68;;;4.30;99.90;;;;;;5002655;28;20018;-80
2020/12/25 01:30:20;;;;;;;12.77;6.50;;;4.20;99.90;;;;;;4991205;28;20026;-78
2020/12/25 01:32:46;;;;;;;11.40;6.13;;;4.20;99.90;;;;;;4994202;28;20527;-78
2020/12/25 01:35:12;;;;;;;13.45;6.07;;;4.20;99.90;;;;;;5002498;28;20044;-80
2020/12/25 01:37:38;;;;;;;14.23;7.78;;;4.20;99.90;;;;;;5000672;28;20355;-79
2020/12/25 01:40:04;;;;;;;11.88;5.95;;;4.20;99.90;;;;;;5010152;28;20092;-79
2020/12/25 01:42:30;;;;;;;13.38;5.68;;;4.20;99.90;;;;;;4997755;28;20134;-82
2020/12/25 01:44:56;;;;;;;12.15;6.43;;;4.30;99.90;;;;;;4996247;28;20132;-79
2020/12/25 01:47:21;;;;;;;11.98;5.97;;;4.30;99.90;;;;;;4999635;28;20149;-80
2020/12/25 01:49:48;;;;;;;15.07;6.47;;;4.30;99.90;;;;;;4996442;28;20050;-80
2020/12/25 01:52:14;;;;;;;13.20;6.00;;;4.20;99.90;;;;;;4998324;28;20046;-79
2020/12/25 01:54:44;;;;;;;12.18;5.05;;;4.30;99.90;;;;;;5009320;28;20058;-80
2020/12/25 01:57:11;;;;;;;14.40;6.10;;;4.30;99.90;;;;;;5004171;28;20054;-78
2020/12/25 01:59:39;;;;;;;13.25;6.57;;;4.30;99.90;;;;;;4995082;28;20580;-77
2020/12/25 02:02:05;;;;;;;10.82;6.07;;;4.30;99.90;;;;;;5000935;28;20437;-79
2020/12/25 02:04:31;;;;;;;13.73;6.35;;;4.20;99.90;;;;;;5000862;28;20041;-78
2020/12/25 02:06:56;;;;;;;11.45;6.05;;;4.20;99.90;;;;;;5001185;28;20027;-77
2020/12/25 02:09:23;;;;;;;10.38;5.78;;;4.20;99.90;;;;;;5002828;28;20181;-77
2020/12/25 02:11:49;;;;;;;14.50;6.32;;;4.20;99.90;;;;;;5010290;28;20129;-78
2020/12/25 02:14:14;;;;;;;14.27;7.05;;;4.20;99.90;;;;;;4997008;28;20038;-79
2020/12/25 02:16:40;;;;;;;9.90;5.72;;;4.20;99.90;;;;;;4994800;28;20039;-80
2020/12/25 02:19:07;;;;;;;12.43;5.57;;;4.30;99.90;;;;;;4993803;28;20399;-78
2020/12/25 02:21:33;;;;;;;11.77;5.45;;;4.30;99.90;;;;;;4988075;28;20105;-78
2020/12/25 02:23:59;;;;;;;12.32;5.57;;;4.40;99.90;;;;;;5009993;28;20125;-78
2020/12/25 02:26:24;;;;;;;14.63;5.90;;;4.40;99.90;;;;;;5005366;28;20077;-78
2020/12/25 02:28:51;;;;;;;11.23;5.50;;;4.40;99.90;;;;;;4991817;28;20137;-79
2020/12/25 02:31:16;;;;;;;15.13;5.45;;;4.40;99.90;;;;;;5010676;28;20046;-79
2020/12/25 02:33:42;;;;;;;11.43;5.53;;;4.50;99.90;;;;;;5000565;28;20049;-79
2020/12/25 02:36:08;;;;;;;12.23;5.60;;;5.30;99.90;;;;;;5013653;28;20038;-77
2020/12/25 02:38:33;;;;;;;11.52;5.57;;;4.50;99.90;;;;;;5015766;28;20034;-80
2020/12/25 02:40:59;;;;;;;9.93;5.15;;;4.50;99.90;;;;;;5029068;28;20046;-79
2020/12/25 02:43:25;;;;;;;10.05;5.32;;;4.60;99.90;;;;;;5007838;28;20557;-81
2020/12/25 02:45:51;;;;;;;10.60;4.90;;;4.50;99.90;;;;;;5010456;28;20077;-78
2020/12/25 02:48:16;;;;;;;13.32;4.78;;;4.50;99.90;;;;;;5015430;28;20053;-78
2020/12/25 02:50:42;;;;;;;8.48;4.10;;;4.50;99.90;;;;;;5009667;28;20108;-81
2020/12/25 02:53:07;;;;;;;10.48;4.40;;;4.50;99.90;;;;;;5012260;28;20093;-78
2020/12/25 02:55:33;;;;;;;10.48;4.28;;;4.50;99.90;;;;;;5011831;28;20041;-79
2020/12/25 02:57:59;;;;;;;11.23;3.80;;;;;;;;;;5007630;28;20049;-78
2020/12/25 03:00:25;;;;;;;8.18;3.85;;;4.60;99.90;;;;;;5022340;28;20069;-79
2020/12/25 03:02:51;;;;;;;7.68;3.83;;;4.50;99.90;;;;;;5014612;28;20030;-80
2020/12/25 03:05:16;;;;;;;6.63;3.85;;;4.50;99.90;;;;;;5006525;28;20036;-80
2020/12/25 03:07:42;;;;;;;7.88;3.50;;;4.50;99.90;;;;;;5012359;28;20116;-78
2020/12/25 03:10:08;;;;;;;9.20;4.15;;;4.60;99.90;;;;;;4988376;28;20078;-80
2020/12/25 03:12:33;;;;;;;9.80;4.38;;;4.50;99.90;;;;;;5019002;28;20076;-80
2020/12/25 03:14:59;;;;;;;9.50;3.85;;;4.50;99.90;;;;;;5015579;28;20049;-78
2020/12/25 03:17:24;;;;;;;11.23;4.85;;;4.50;99.90;;;;;;5011558;28;20081;-79
2020/12/25 03:19:50;;;;;;;9.60;3.88;;;4.40;99.90;;;;;;5011523;28;20594;-78
2020/12/25 03:22:16;;;;;;;9.75;3.95;;;4.50;99.90;;;;;;5013581;28;20041;-79
2020/12/25 03:24:41;;;;;;;10.07;3.88;;;4.50;99.90;;;;;;5010792;28;20034;-79
2020/12/25 03:27:07;;;;;;;9.68;4.03;;;4.60;99.90;;;;;;5008071;28;20133;-78
2020/12/25 03:29:33;;;;;;;8.35;3.63;;;4.60;99.90;;;;;;5012517;28;20045;-78
2020/12/25 03:31:58;;;;;;;9.60;3.83;;;4.60;99.90;;;;;;5014208;28;21145;-78
2020/12/25 03:34:24;;;;;;;7.95;4.03;;;4.60;99.90;;;;;;5016251;28;20045;-78
2020/12/25 03:36:50;;;;;;;9.60;4.13;;;4.60;99.90;;;;;;4996409;28;20046;-78
2020/12/25 03:39:20;;;;;;;10.05;3.85;;;4.60;99.90;;;;;;5014805;28;20025;-78
2020/12/25 03:41:49;;;;;;;8.20;3.80;;;4.60;99.90;;;;;;5012373;28;20037;-78
2020/12/25 03:44:14;;;;;;;10.90;4.07;;;4.60;99.90;;;;;;5014964;28;20053;-78
2020/12/25 03:46:40;;;;;;;9.13;3.78;;;4.50;99.90;;;;;;5010827;28;20042;-78
2020/12/25 03:49:07;;;;;;;6.93;3.80;;;4.50;99.90;;;;;;5013197;28;20434;-79
2020/12/25 03:51:33;;;;;;;9.02;4.05;;;7.30;99.90;;;;;;5011040;28;20042;-77
2020/12/25 03:53:58;;;;;;;9.05;3.78;;;4.50;99.90;;;;;;5010904;28;20044;-78
2020/12/25 03:56:24;;;;;;;6.43;3.53;;;4.50;99.90;;;;;;5016524;28;20435;-77
2020/12/25 03:58:50;;;;;;;10.90;4.03;;;4.50;99.90;;;;;;5009998;28;20434;-77
2020/12/25 04:01:16;;;;;;;10.15;3.85;;;4.50;99.90;;;;;;5011104;28;20049;-78
2020/12/25 04:03:41;;;;;;;12.18;3.80;;;4.60;99.90;;;;;;5008733;28;20059;-79
2020/12/25 04:06:07;;;;;;;11.30;4.10;;;4.60;99.90;;;;;;5008420;28;20539;-78
2020/12/25 04:08:33;;;;;;;10.48;3.97;;;4.60;99.90;;;;;;5004609;28;20937;-78
2020/12/25 04:10:58;;;;;;;9.60;4.07;;;4.60;99.90;;;;;;5013332;28;20523;-78
2020/12/25 04:13:24;;;;;;;9.77;3.80;;;4.70;99.90;;;;;;4995429;28;20042;-78
2020/12/25 04:15:49;;;;;;;11.63;3.80;;;4.70;99.90;;;;;;5010108;28;20034;-82
2020/12/25 04:18:15;;;;;;;7.45;3.90;;;4.70;99.90;;;;;;5010769;28;20057;-80
2020/12/25 04:20:41;;;;;;;9.40;3.55;;;4.70;99.90;;;;;;5008712;28;20022;-79
2020/12/25 04:23:06;;;;;;;7.20;3.83;;;4.70;99.90;;;;;;5010762;28;20049;-80
2020/12/25 04:25:32;;;;;;;7.03;3.50;;;4.70;99.90;;;;;;5011921;28;20579;-79
2020/12/25 04:27:57;;;;;;;10.93;4.65;;;4.70;99.90;;;;;;5009358;28;20073;-80
2020/12/25 04:30:23;;;;;;;12.63;3.95;;;4.70;99.90;;;;;;4998697;28;20137;-78
2020/12/25 04:32:49;;;;;;;8.48;3.15;;;4.60;99.90;;;;;;5011557;28;20097;-79
2020/12/25 04:35:14;;;;;;;7.20;3.40;;;4.70;99.90;;;;;;5013232;28;20037;-79
2020/12/25 04:37:40;;;;;;;6.97;3.22;;;5.80;99.90;;;;;;5009140;28;20056;-78
2020/12/25 04:40:06;;;;;;;5.95;3.13;;;4.60;99.90;;;;;;5009882;28;20073;-81
2020/12/25 04:42:39;;;;;;;8.75;3.40;;;4.70;99.90;;;;;;5007559;28;20313;-79
2020/12/25 04:45:05;;;;;;;6.93;3.00;;;4.60;99.90;;;;;;5012909;28;20514;-78
2020/12/25 04:47:30;;;;;;;9.85;3.55;;;4.60;99.90;;;;;;5017686;28;20042;-79
2020/12/25 04:49:56;;;;;;;11.77;3.45;;;4.20;99.90;;;;;;5010077;28;20111;-79
2020/12/25 04:52:22;;;;;;;6.82;2.83;;;;;;;;;;5010098;28;20040;-79
2020/12/25 04:54:48;;;;;;;8.02;3.35;;;4.60;99.90;;;;;;5011451;28;20152;-77
2020/12/25 04:57:13;;;;;;;6.15;3.17;;;4.60;99.90;;;;;;5007794;28;20034;-78
2020/12/25 04:59:39;;;;;;;7.85;3.33;;;4.60;99.90;;;;;;4996147;28;20065;-78
2020/12/25 05:02:04;;;;;;;6.03;2.97;;;4.60;99.90;;;;;;5017385;28;20038;-79
2020/12/25 05:04:30;;;;;;;5.28;2.70;;;4.60;99.90;;;;;;5017776;28;20104;-77
2020/12/25 05:06:56;;;;;;;9.50;3.00;;;5.00;99.90;;;;;;5011152;28;20050;-78
2020/12/25 05:09:25;;;;;;;7.75;3.55;;;4.60;99.90;;;;;;5023965;28;20045;-77
2020/12/25 05:11:57;;;;;;;6.75;3.35;;;4.60;99.90;;;;;;5025577;28;20157;-77
2020/12/25 05:14:26;;;;;;;5.82;2.55;;;4.60;99.90;;;;;;5012140;28;20041;-79
2020/12/25 05:16:57;;;;;;;7.00;2.97;;;4.60;99.90;;;;;;5011974;28;20038;-79
2020/12/25 05:19:26;;;;;;;4.80;2.63;;;4.60;99.90;;;;;;5013010;28;20526;-81
2020/12/25 05:21:54;;;;;;;6.35;3.20;;;4.40;99.90;;;;;;5020937;28;20036;-80
2020/12/25 05:24:20;;;;;;;7.30;3.08;;;4.60;99.90;;;;;;5010200;28;20565;-78
2020/12/25 05:26:54;;;;;;;7.05;2.72;;;4.60;99.90;;;;;;4991980;28;20042;-79
2020/12/25 05:29:22;;;;;;;5.57;3.20;;;4.60;99.90;;;;;;5008404;28;20049;-79
2020/12/25 05:31:49;;;;;;;12.95;3.42;;;4.10;99.90;;;;;;5014893;28;20120;-78
2020/12/25 05:34:17;;;;;;;7.85;3.65;;;4.60;99.90;;;;;;5015119;28;20038;-80
2020/12/25 05:36:53;;;;;;;7.47;2.92;;;7.50;99.90;;;;;;5009461;28;20377;-79
2020/12/25 05:39:27;;;;;;;7.82;3.15;;;4.60;99.90;;;;;;5007771;28;20040;-79
2020/12/25 05:41:56;;;;;;;6.60;2.55;;;4.60;99.90;;;;;;5008460;28;20038;-78
2020/12/25 05:44:23;;;;;;;4.18;2.70;;;4.50;99.90;;;;;;5010896;28;20373;-79
2020/12/25 05:46:49;;;;;;;6.55;2.85;;;4.50;99.90;;;;;;5018580;28;20132;-78
2020/12/25 05:49:15;;;;;;;8.50;3.63;;;;;;;;;;5013256;28;20073;-78
2020/12/25 05:51:49;;;;;;;5.25;3.25;;;4.60;99.90;;;;;;5014622;28;20093;-79
2020/12/25 05:54:23;;;;;;;6.88;3.00;;;4.40;99.90;;;;;;5012108;28;20506;-79
2020/12/25 05:56:58;;;;;;;8.88;3.40;;;4.50;99.90;;;;;;5011124;28;20032;-78
2020/12/25 05:59:28;;;;;;;6.10;2.92;;;4.70;99.90;;;;;;5016607;28;20044;-78
2020/12/25 06:02:03;;;;;;;5.30;2.95;;;4.70;99.90;;;;;;5014626;28;20045;-80
2020/12/25 06:04:31;;;;;;;5.00;2.92;;;4.80;99.90;;;;;;5016037;28;20042;-80
2020/12/25 06:06:56;;;;;;;5.90;3.03;;;4.70;99.90;;;;;;5026834;28;20034;-78
2020/12/25 06:09:30;;;;;;;5.75;2.97;;;4.70;99.90;;;;;;5013135;28;20046;-79
2020/12/25 06:11:56;;;;;;;6.70;3.08;;;4.60;99.90;;;;;;5013743;28;20025;-78
2020/12/25 06:14:22;;;;;;;5.35;2.75;;;4.60;99.90;;;;;;5026712;28;20046;-79
2020/12/25 06:16:54;;;;;;;5.78;2.72;;;4.50;99.90;;;;;;5025099;28;20052;-79
2020/12/25 06:19:33;;;;;;;6.43;3.05;;;4.50;99.90;;;;;;5019119;28;20053;-79
2020/12/25 06:22:04;;;;;;;5.30;2.72;;;4.50;99.90;;;;;;5012538;28;20064;-79
2020/12/25 06:24:37;;;;;;;5.85;3.15;;;4.50;99.90;;;;;;5015911;28;20056;-79
2020/12/25 06:27:05;;;;;;;5.40;3.30;;;4.50;99.90;;;;;;5012291;28;20041;-78
2020/12/25 06:29:30;;;;;;;6.53;3.55;;;5.00;99.90;;;;;;5014102;28;20038;-78
2020/12/25 06:31:58;;;;;;;7.93;3.33;;;4.50;99.90;;;;;;5014409;28;20034;-77
2020/12/25 06:34:44;;;;;;;5.75;3.20;;;4.40;99.90;;;;;;5012664;28;20050;-78
2020/12/25 06:37:13;;;;;;;9.60;3.47;;;4.50;99.90;;;;;;5028836;28;20208;-76
2020/12/25 06:39:52;;;;;;;9.40;3.97;;;4.40;99.90;;;;;;5015590;28;20499;-78
2020/12/25 06:42:34;;;;;;;9.05;3.80;;;4.40;99.90;;;;;;5021413;28;20042;-78
2020/12/25 06:45:02;;;;;;;5.25;3.30;;;4.40;99.90;;;;;;5010896;28;20041;-77
2020/12/25 06:47:32;;;;;;;7.93;4.35;;;4.50;99.90;;;;;;5014406;28;20403;-78
2020/12/25 06:49:58;;;;;;;8.05;5.03;;;;;;;;;;5015967;28;20064;-77
2020/12/25 06:52:29;;;;;;;6.80;3.75;;;4.50;99.90;;;;;;5015117;28;20030;-79
2020/12/25 06:54:56;;;;;;;5.95;3.30;;;4.50;99.90;;;;;;5016172;28;20042;-80
2020/12/25 06:57:25;;;;;;;8.75;3.65;;;4.60;99.90;;;;;;5010121;28;20038;-78
2020/12/25 06:59:51;;;;;;;7.20;4.15;;;4.50;99.90;;;;;;5006803;28;20054;-79
2020/12/25 07:02:18;;;;;;;5.32;3.70;;;4.60;99.90;;;;;;5009628;28;20955;-78
2020/12/25 07:04:44;;;;;;;8.27;3.80;;;4.50;99.90;;;;;;5012191;28;20041;-78
2020/12/25 07:07:10;;;;;;;8.32;4.18;;;4.90;99.90;;;;;;5011824;28;20045;-79
2020/12/25 07:09:47;;;;;;;6.95;3.85;;;4.50;99.90;;;;;;5013149;28;20034;-79
2020/12/25 07:12:15;;;;;;;5.82;3.85;;;4.50;99.90;;;;;;5007114;28;20496;-78
2020/12/25 07:14:40;;;;;;;7.60;4.10;;;4.50;99.90;;;;;;5028349;28;20042;-80
2020/12/25 07:17:07;;;;;;;7.82;4.32;;;4.50;99.90;;;;;;5017472;28;20046;-79
2020/12/25 07:19:36;;;;;;;6.95;4.43;;;4.30;99.90;;;;;;5013298;28;20038;-78
2020/12/25 07:22:06;;;;;;;6.53;3.97;;;4.40;99.90;;;;;;5009768;28;20046;-78
2020/12/25 07:24:42;;;;;;;5.65;3.70;;;4.40;99.90;;;;;;5013640;28;20033;-78
2020/12/25 07:27:09;;;;;;;7.60;4.18;;;4.40;99.90;;;;;;5016708;28;20598;-79
2020/12/25 07:29:38;;;;;;;7.90;4.18;;;4.40;99.90;;;;;;5016849;28;20060;-79
2020/12/25 07:32:05;;;;;;;7.68;4.22;;;4.50;99.90;;;;;;5013943;28;20065;-78
2020/12/25 07:34:31;;;;;;;7.47;4.18;;;4.40;99.90;;;;;;5015573;28;20092;-80
2020/12/25 07:36:57;;;;;;;8.38;5.43;;;7.30;99.90;;;;;;5014428;28;20038;-79
2020/12/25 07:39:24;;;;;;;8.68;4.72;;;4.40;99.90;;;;;;5016265;28;20045;-78
2020/12/25 07:41:50;;;;;;;9.10;5.28;;;4.40;99.90;;;;;;5013174;28;20120;-79
2020/12/25 07:44:21;;;;;;;7.57;4.88;;;4.40;99.90;;;;;;5016053;28;20042;-81
2020/12/25 07:46:46;;;;;;;8.98;5.13;;;4.40;99.90;;;;;;5015883;28;20049;-79
2020/12/25 07:49:13;;;;;;;12.57;6.40;;;4.40;99.90;;;;;;5015486;28;20502;-78
2020/12/25 07:51:40;;;;;;;11.70;5.72;;;4.30;99.90;;;;;;5017940;28;20049;-78
2020/12/25 07:54:07;;;;;;;9.23;5.60;;;;;;;;;;5019510;28;20053;-78
2020/12/25 07:56:34;;;;;;;10.20;6.07;;;4.40;99.90;;;;;;5016379;28;20050;-78
2020/12/25 07:59:02;;;;;;;9.32;5.70;;;4.40;99.90;;;;;;5015201;28;20045;-80
2020/12/25 08:01:30;;;;;;;10.05;6.13;;;4.40;99.90;;;;;;5011628;28;20076;-83
2020/12/25 08:04:00;;;;;;;10.82;6.53;;;4.40;99.90;;;;;;5009490;28;20040;-77
2020/12/25 08:06:28;;;;;;;10.02;6.15;;;4.40;99.90;;;;;;5010560;28;20050;-79
2020/12/25 08:09:10;;;;;;;9.90;6.15;;;4.20;99.90;;;;;;5012949;28;20033;-79
2020/12/25 08:11:37;;;;;;;11.73;6.85;;;4.40;99.90;;;;;;5024585;28;20057;-76
2020/12/25 08:14:08;;;;;;;12.07;7.07;;;4.40;99.90;;;;;;5015988;28;20034;-77
2020/12/25 08:16:38;;;;;;;9.68;7.00;;;4.40;99.90;;;;;;5009980;28;20030;-76
2020/12/25 08:19:05;;;;;;;10.32;7.00;;;4.50;99.90;;;;;;5015294;28;20104;-79
2020/12/25 08:21:37;;;;;;;10.90;7.45;;;4.50;99.90;;;;;;5013640;28;20041;-77
2020/12/25 08:24:03;;;;;;;9.90;7.10;;;4.50;99.90;;;;;;5014502;28;20033;-78
2020/12/25 08:26:38;;;;;;;10.75;6.70;;;4.50;99.90;;;;;;5011334;28;20030;-80
2020/12/25 08:29:04;;;;;;;8.52;6.03;;;4.60;99.90;;;;;;5020707;28;20030;-80
2020/12/25 08:31:38;;;;;;;12.45;6.82;;;6.80;99.90;;;;;;5008897;28;20140;-78
2020/12/25 08:34:05;;;;;;;11.23;6.90;;;4.60;99.90;;;;;;5013799;28;20038;-79
2020/12/25 08:36:31;;;;;;;10.27;7.53;;;;;;;;;;5013309;28;20054;-77
2020/12/25 08:38:57;;;;;;;12.23;7.57;;;4.50;99.90;;;;;;5017047;28;20318;-78
2020/12/25 08:41:27;;;;;;;13.48;8.15;;;4.50;99.90;;;;;;5028322;28;20065;-79
2020/12/25 08:43:53;;;;;;;10.82;7.25;;;4.50;99.90;;;;;;5011716;28;20467;-78
2020/12/25 08:46:24;;;;;;;11.10;8.00;;;4.50;99.90;;;;;;5010857;28;20119;-79
2020/12/25 08:48:52;;;;;;;12.82;8.18;;;4.50;99.90;;;;;;5009668;28;20034;-79
2020/12/25 08:51:20;;;;;;;11.60;8.02;;;4.40;99.90;;;;;;5025462;28;20054;-79
2020/12/25 08:53:53;;;;;;;13.05;7.97;;;4.50;99.90;;;;;;5006894;28;20061;-79
2020/12/25 08:56:21;;;;;;;11.70;7.30;;;4.40;99.90;;;;;;5006203;28;20041;-81
2020/12/25 08:59:07;;;;;;;10.77;7.18;;;5.40;99.90;;;;;;5017578;28;20045;-81
2020/12/25 09:01:34;;;;;;;11.18;7.32;;;4.40;99.90;;;;;;5005478;28;20038;-81
2020/12/25 09:04:00;;;;;;;10.23;7.13;;;6.40;99.90;;;;;;5000875;28;20038;-82
2020/12/25 09:06:27;;;;;;;13.00;8.10;;;4.10;99.90;;;;;;5004669;28;20038;-82
2020/12/25 09:08:53;;;;;;;10.57;7.05;;;;;;;;;;5018479;28;20042;-82
2020/12/25 09:11:22;;;;;;;10.82;7.07;;;4.50;99.90;;;;;;5004942;28;20053;-80
2020/12/25 09:13:48;;;;;;;10.50;7.00;;;;;;;;;;5004669;28;20033;-81
2020/12/25 09:16:14;;;;;;;11.07;7.18;;;4.50;99.90;;;;;;5013185;28;20578;-79
2020/12/25 09:18:41;;;;;;;8.48;7.00;;;4.50;99.90;;;;;;5005331;28;20034;-79
2020/12/25 09:21:09;;;;;;;13.30;7.10;;;4.50;99.90;;;;;;5003771;28;20411;-82
2020/12/25 09:23:35;;;;;;;12.25;7.05;;;;;;;;;;5004583;28;20068;-80
2020/12/25 09:26:01;;;;;;;11.95;7.35;;;;;;;;;;5001956;28;20046;-78
2020/12/25 09:28:26;;;;;;;12.02;7.43;;;4.50;99.90;;;;;;5000579;28;20037;-80
2020/12/25 09:30:55;;;;;;;11.18;7.47;;;4.50;99.90;;;;;;4998361;28;20034;-78
2020/12/25 09:33:21;;;;;;;10.82;7.32;;;;;;;;;;4996990;28;20034;-78
2020/12/25 09:35:47;;;;;;;8.73;6.63;;;;;;;;;;5005658;28;20038;-79
2020/12/25 09:38:13;;;;;;;12.07;7.85;;;4.50;99.90;;;;;;5003517;28;20030;-78
2020/12/25 09:40:39;;;;;;;11.25;6.90;;;;;;;;;;4999805;28;20034;-81
2020/12/25 09:43:05;;;;;;;9.85;6.40;;;4.50;99.90;;;;;;5006149;28;20142;-79
2020/12/25 09:45:31;;;;;;;8.20;6.35;;;6.60;99.90;;;;;;5010725;28;20225;-79
2020/12/25 09:47:57;;;;;;;10.07;6.43;;;;;;;;;;5005304;28;20046;-79
2020/12/25 09:50:23;;;;;;;8.43;5.47;;;;;;;;;;5000070;28;20037;-77
2020/12/25 09:52:48;;;;;;;9.68;5.35;;;4.80;99.10;;;;;;5013414;28;20491;-78
2020/12/25 09:55:14;;;;;;;8.63;5.65;;;4.80;99.40;;;;;;4997927;28;20209;-80
2020/12/25 09:57:39;;;;;;;8.75;5.80;;;4.80;99.80;;;;;;5001144;28;20129;-81
2020/12/25 10:00:10;;;;;;;7.38;5.28;;;4.80;99.90;;;;;;4996118;28;20097;-78
2020/12/25 10:02:36;;;;;;;;;;;6.10;99.90;;;;;;4996420;28;20515;-81
2020/12/25 10:05:03;;;;;;;7.65;4.82;;;4.80;99.40;;;;;;4998317;28;19909;-79
2020/12/25 10:07:29;;;;;;;6.65;5.10;;;;;;;;;;4998007;28;20085;-78
2020/12/25 10:09:55;;;;;;;6.50;4.90;;;;;;;;;;4992714;28;20571;-82
2020/12/25 10:12:21;;;;;;;7.43;4.57;;;;;;;;;;4990173;28;20170;-80
2020/12/25 10:14:47;;;;;;;7.28;5.00;;;;;;;;;;4997838;28;20069;-79
2020/12/25 10:17:13;;;;;;;9.55;4.75;;;5.00;99.90;;;;;;4993892;28;20144;-78
2020/12/25 10:19:39;;;;;;;6.43;4.82;;;5.00;99.20;;;;;;4998032;28;20128;-77
2020/12/25 10:22:04;;;;;;;7.55;3.88;;;5.00;98.50;;;;;;4992775;28;20057;-79
2020/12/25 10:24:30;;;;;;;8.63;4.07;;;5.10;98.30;;;;;;5002460;28;20133;-77
2020/12/25 10:26:55;;;;;;;5.40;3.72;;;5.10;98.10;;;;;;5003595;28;20653;-79
2020/12/25 10:29:21;;;;;;;5.53;4.32;;;5.10;98.40;;;;;;5002412;28;20099;-77
2020/12/25 10:31:50;;;;;;;7.18;3.85;;;5.10;98.70;;;;;;4996559;28;20030;-77
2020/12/25 10:34:17;;;;;;;5.25;3.38;;;5.20;98.10;;;;;;4997431;28;20096;-78
2020/12/25 10:36:43;;;;;;;4.90;3.67;;;5.20;97.80;;;;;;5003005;28;20042;-77
2020/12/25 10:39:13;;;;;;;6.00;3.28;;;5.30;97.20;;;;;;5015663;28;20030;-77
2020/12/25 10:41:39;;;;;;;4.68;3.55;;;5.30;97.70;;;;;;5001556;28;20075;-77
2020/12/25 10:44:05;;;;;;;5.30;3.20;;;5.30;97.70;;;;;;5005308;28;20465;-77
2020/12/25 10:46:31;;;;;;;5.75;3.22;;;5.30;97.00;;;;;;4998263;28;20108;-77
2020/12/25 10:48:56;;;;;;;5.82;3.20;;;5.30;96.30;;;;;;5005653;28;20492;-77
2020/12/25 10:51:22;;;;;;;5.95;2.88;;;5.30;96.50;;;;;;4986673;28;20451;-80
2020/12/25 10:53:49;;;;;;;6.05;3.25;;;5.40;95.70;;;;;;5015344;28;20100;-78
2020/12/25 10:56:21;;;;;;;6.20;3.40;;;5.40;96.10;;;;;;5003977;28;20037;-77
2020/12/25 10:58:48;;;;;;;5.90;3.97;;;5.40;96.60;;;;;;5001335;28;20546;-77
2020/12/25 11:01:23;;;;;;;5.68;3.58;;;5.30;96.50;;;;;;5000473;28;20030;-79
2020/12/25 11:03:49;;;;;;;5.28;3.47;;;5.40;95.60;;;;;;5016029;28;20447;-77
2020/12/25 11:06:16;;;;;;;6.57;3.80;;;5.40;96.30;;;;;;5002588;28;20047;-76
2020/12/25 11:08:41;;;;;;;6.32;3.53;;;5.40;96.10;;;;;;4997100;28;20455;-77
2020/12/25 11:11:07;;;;;;;4.95;3.25;;;5.50;97.90;;;;;;5004408;28;20045;-77
2020/12/25 11:13:33;;;;;;;6.22;3.22;;;5.60;95.80;;;;;;5015632;28;20033;-78
2020/12/25 11:15:59;;;;;;;6.30;3.20;;;5.60;95.30;;;;;;4999819;28;20061;-77
2020/12/25 11:18:25;;;;;;;3.75;2.83;;;6.50;95.60;;;;;;4993191;28;20077;-78
2020/12/25 11:20:51;;;;;;;4.68;3.05;;;5.60;95.10;;;;;;4999085;28;20609;-78
2020/12/25 11:23:17;;;;;;;4.32;3.00;;;5.50;95.20;;;;;;4998977;28;20038;-79
2020/12/25 11:25:42;;;;;;;4.25;2.72;;;5.50;95.00;;;;;;4997505;28;20065;-76
2020/12/25 11:28:08;;;;;;;3.45;2.60;;;6.30;94.40;;;;;;5005345;28;20065;-78
2020/12/25 11:30:34;;;;;;;5.03;2.88;;;5.60;93.90;;;;;;5001654;28;20041;-77
2020/12/25 11:32:59;;;;;;;5.55;3.20;;;5.50;93.90;;;;;;5002188;28;20038;-80
2020/12/25 11:35:25;;;;;;;4.85;2.70;;;5.60;93.90;;;;;;4999655;28;20515;-79
2020/12/25 11:37:51;;;;;;;3.83;2.50;;;5.60;93.90;;;;;;5003697;28;20038;-79
2020/12/25 11:40:16;;;;;;;5.47;2.63;;;5.70;92.60;;;;;;5009622;28;20887;-81
2020/12/25 11:42:42;;;;;;;5.43;2.70;;;5.70;93.00;;;;;;5014972;28;20037;-80
2020/12/25 11:45:08;;;;;;;4.43;2.70;;;5.60;93.50;;;;;;5007138;28;20049;-79
2020/12/25 11:47:34;;;;;;;4.22;2.60;;;5.60;93.60;;;;;;4992557;28;20046;-79
2020/12/25 11:49:59;;;;;;;5.13;2.58;;;5.60;93.40;;;;;;4998988;28;20466;-77
2020/12/25 11:52:31;;;;;;;3.55;2.22;;;5.70;92.90;;;;;;5005732;28;20042;-82
2020/12/25 11:54:57;;;;;;;4.97;2.70;;;5.60;93.00;;;;;;5008448;28;20034;-81
2020/12/25 11:57:23;;;;;;;5.25;2.30;;;5.70;92.80;;;;;;5003376;28;20515;-80
2020/12/25 11:59:49;;;;;;;4.78;2.53;;;5.80;92.80;;;;;;4987003;28;20038;-82
2020/12/25 12:02:14;;;;;;;4.03;2.30;;;5.80;92.90;;;;;;5001779;28;20052;-81
2020/12/25 12:04:40;;;;;;;4.82;2.25;;;5.70;92.00;;;;;;4986492;28;20057;-79
2020/12/25 12:07:05;;;;;;;4.45;2.28;;;5.80;90.70;;;;;;5008804;28;20045;-80
2020/12/25 12:09:31;;;;;;;5.78;2.40;;;5.80;91.20;;;;;;4991018;28;20112;-80
2020/12/25 12:11:56;;;;;;;4.93;2.13;;;5.80;91.70;;;;;;5006061;28;20030;-79
2020/12/25 12:14:22;;;;;;;3.03;2.03;;;;;;;;;;5001538;28;20112;-78
2020/12/25 12:16:51;;;;;;;5.30;2.50;;;5.80;91.10;;;;;;5007216;28;20088;-81
2020/12/25 12:19:17;;;;;;;5.00;2.10;;;5.90;91.30;;;;;;5020238;28;20037;-81
2020/12/25 12:21:43;;;;;;;6.43;2.10;;;5.90;91.60;;;;;;4992282;28;20049;-79
2020/12/25 12:24:08;;;;;;;3.80;2.10;;;5.90;91.30;;;;;;4997392;28;20048;-81
2020/12/25 12:26:34;;;;;;;5.93;2.38;;;5.90;90.60;;;;;;5002115;28;20512;-79
2020/12/25 12:28:59;;;;;;;3.95;1.92;;;6.00;90.40;;;;;;5018783;28;20038;-80
2020/12/25 12:31:25;;;;;;;3.65;1.92;;;6.00;90.40;;;;;;5004727;28;20041;-81
2020/12/25 12:33:51;;;;;;;5.43;2.20;;;6.00;89.10;;;;;;5007122;28;20065;-80
2020/12/25 12:36:17;;;;;;;4.72;2.40;;;6.20;87.60;;;;;;5004440;28;20038;-82
2020/12/25 12:38:43;;;;;;;4.85;1.98;;;6.20;90.80;;;;;;5003803;28;20042;-80
2020/12/25 12:41:09;;;;;;;5.00;2.30;;;6.90;90.50;;;;;;5005310;28;20042;-80
2020/12/25 12:43:34;;;;;;;4.47;2.35;;;6.20;90.00;;;;;;4999829;28;20033;-80
2020/12/25 12:46:00;;;;;;;3.88;2.05;;;6.20;89.40;;;;;;5004568;28;20046;-82
2020/12/25 12:48:26;;;;;;;5.93;1.98;;;6.20;88.70;;;;;;5004710;28;22141;-80
2020/12/25 12:50:51;;;;;;;4.75;2.35;;;6.30;88.30;;;;;;4991475;28;21512;-81
2020/12/25 12:53:18;;;;;;;5.43;1.88;;;6.20;89.60;;;;;;5005609;28;20102;-80
2020/12/25 12:55:44;;;;;;;4.22;2.00;;;6.20;90.10;;;;;;5003278;28;20059;-80
2020/12/25 12:58:09;;;;;;;5.90;2.30;;;6.10;90.10;;;;;;5006961;28;20042;-80